sensor_id;sensor_type;location;lat;lon;timestamp;P1;durP1;ratioP1;P2;durP2;ratioP2
35304;SDS011;26433;48.034;-1.764;2023-08-01T00:00:47;0.03;;;0.03;;
35304;SDS011;26433;48.034;-1.764;2023-08-01T00:05:53;12.20;;;0.40;;
35304;SDS011;26433;48.034;-1.764;2023-08-01T00:10:56;0.10;;;0.10;;
35304;SDS011;26433;48.034;-1.764;2023-08-01T00:16:00;0.10;;;0.10;;
35304;SDS011;26433;48.034;-1.764;2023-08-01T00:21:10;0.10;;;0.10;;
35304;SDS011;26433;48.034;-1.764;2023-08-01T00:26:14;0.05;;;0.05;;
35304;SDS011;26433;48.034;-1.764;2023-08-01T00:31:17;0.07;;;0.07;;
35304;SDS011;26433;48.034;-1.764;2023-08-01T00:36:23;0.30;;;0.30;;
35304;SDS011;26433;48.034;-1.764;2023-08-01T00:41:26;0.25;;;0.25;;
35304;SDS011;26433;48.034;-1.764;2023-08-01T00:46:31;0.20;;;0.20;;
35304;SDS011;26433;48.034;-1.764;2023-08-01T00:51:36;0.30;;;0.25;;
35304;SDS011;26433;48.034;-1.764;2023-08-01T00:56:40;0.13;;;0.10;;
35304;SDS011;26433;48.034;-1.764;2023-08-01T01:01:44;0.13;;;0.10;;
35304;SDS011;26433;48.034;-1.764;2023-08-01T01:06:51;0.68;;;0.15;;
35304;SDS011;26433;48.034;-1.764;2023-08-01T01:12:00;0.43;;;0.13;;
35304;SDS011;26433;48.034;-1.764;2023-08-01T01:17:06;1.27;;;0.20;;
35304;SDS011;26433;48.034;-1.764;2023-08-01T01:22:11;1.95;;;0.30;;
35304;SDS011;26433;48.034;-1.764;2023-08-01T01:27:16;0.95;;;0.40;;
35304;SDS011;26433;48.034;-1.764;2023-08-01T01:32:21;1.45;;;0.77;;
35304;SDS011;26433;48.034;-1.764;2023-08-01T01:37:27;1.12;;;0.15;;
35304;SDS011;26433;48.034;-1.764;2023-08-01T01:42:31;0.20;;;0.20;;
35304;SDS011;26433;48.034;-1.764;2023-08-01T01:47:34;2.43;;;0.40;;
35304;SDS011;26433;48.034;-1.764;2023-08-01T01:52:39;1.57;;;0.30;;
35304;SDS011;26433;48.034;-1.764;2023-08-01T01:57:43;0.50;;;0.20;;
35304;SDS011;26433;48.034;-1.764;2023-08-01T02:02:47;0.27;;;0.20;;
35304;SDS011;26433;48.034;-1.764;2023-08-01T02:07:52;0.20;;;0.20;;
35304;SDS011;26433;48.034;-1.764;2023-08-01T02:12:56;1.65;;;0.35;;
35304;SDS011;26433;48.034;-1.764;2023-08-01T02:18:00;0.35;;;0.22;;
35304;SDS011;26433;48.034;-1.764;2023-08-01T02:23:06;0.22;;;0.15;;
35304;SDS011;26433;48.034;-1.764;2023-08-01T02:28:10;0.30;;;0.20;;
35304;SDS011;26433;48.034;-1.764;2023-08-01T02:33:14;1.17;;;0.30;;
35304;SDS011;26433;48.034;-1.764;2023-08-01T02:38:20;0.20;;;0.20;;
35304;SDS011;26433;48.034;-1.764;2023-08-01T02:43:23;1.10;;;0.40;;
35304;SDS011;26433;48.034;-1.764;2023-08-01T02:48:27;0.30;;;0.30;;
35304;SDS011;26433;48.034;-1.764;2023-08-01T02:53:32;0.57;;;0.40;;
35304;SDS011;26433;48.034;-1.764;2023-08-01T02:58:36;1.95;;;0.65;;
35304;SDS011;26433;48.034;-1.764;2023-08-01T03:03:46;0.35;;;0.30;;
35304;SDS011;26433;48.034;-1.764;2023-08-01T03:22:17;1.55;;;0.32;;
35304;SDS011;26433;48.034;-1.764;2023-08-01T03:27:25;2.25;;;0.40;;
35304;SDS011;26433;48.034;-1.764;2023-08-01T04:09:00;3.75;;;0.70;;
35304;SDS011;26433;48.034;-1.764;2023-08-01T04:14:19;1.45;;;0.90;;
35304;SDS011;26433;48.034;-1.764;2023-08-01T04:19:23;5.47;;;1.37;;
35304;SDS011;26433;48.034;-1.764;2023-08-01T04:24:28;1.00;;;0.88;;
35304;SDS011;26433;48.034;-1.764;2023-08-01T04:29:33;5.85;;;1.55;;
35304;SDS011;26433;48.034;-1.764;2023-08-01T04:34:36;3.67;;;1.62;;
35304;SDS011;26433;48.034;-1.764;2023-08-01T04:39:42;1.85;;;1.02;;
35304;SDS011;26433;48.034;-1.764;2023-08-01T04:44:46;4.43;;;1.62;;
35304;SDS011;26433;48.034;-1.764;2023-08-01T04:49:49;1.70;;;0.98;;
35304;SDS011;26433;48.034;-1.764;2023-08-01T04:54:55;2.42;;;0.80;;
35304;SDS011;26433;48.034;-1.764;2023-08-01T04:59:58;1.67;;;0.93;;
35304;SDS011;26433;48.034;-1.764;2023-08-01T05:05:03;3.53;;;1.17;;
35304;SDS011;26433;48.034;-1.764;2023-08-01T05:10:09;2.53;;;0.85;;
35304;SDS011;26433;48.034;-1.764;2023-08-01T05:15:13;4.18;;;0.98;;
35304;SDS011;26433;48.034;-1.764;2023-08-01T05:20:17;3.60;;;1.25;;
35304;SDS011;26433;48.034;-1.764;2023-08-01T05:25:22;3.67;;;0.93;;
35304;SDS011;26433;48.034;-1.764;2023-08-01T05:30:26;1.27;;;0.75;;
35304;SDS011;26433;48.034;-1.764;2023-08-01T05:35:30;3.03;;;0.90;;
35304;SDS011;26433;48.034;-1.764;2023-08-01T05:40:35;2.45;;;1.42;;
35304;SDS011;26433;48.034;-1.764;2023-08-01T05:45:39;5.43;;;1.40;;
35304;SDS011;26433;48.034;-1.764;2023-08-01T05:50:43;3.50;;;1.23;;
35304;SDS011;26433;48.034;-1.764;2023-08-01T05:55:48;2.03;;;1.30;;
35304;SDS011;26433;48.034;-1.764;2023-08-01T06:00:54;1.42;;;0.90;;
35304;SDS011;26433;48.034;-1.764;2023-08-01T06:06:03;1.30;;;1.05;;
35304;SDS011;26433;48.034;-1.764;2023-08-01T06:11:10;1.62;;;0.80;;
35304;SDS011;26433;48.034;-1.764;2023-08-01T06:16:14;4.85;;;1.17;;
35304;SDS011;26433;48.034;-1.764;2023-08-01T06:21:18;4.97;;;1.00;;
35304;SDS011;26433;48.034;-1.764;2023-08-01T06:26:23;1.23;;;1.05;;
35304;SDS011;26433;48.034;-1.764;2023-08-01T06:31:27;7.80;;;1.48;;
35304;SDS011;26433;48.034;-1.764;2023-08-01T06:36:31;5.80;;;1.20;;
35304;SDS011;26433;48.034;-1.764;2023-08-01T06:41:36;1.62;;;1.27;;
35304;SDS011;26433;48.034;-1.764;2023-08-01T06:46:40;4.45;;;1.33;;
35304;SDS011;26433;48.034;-1.764;2023-08-01T06:51:44;1.90;;;1.25;;
35304;SDS011;26433;48.034;-1.764;2023-08-01T06:56:50;5.28;;;1.23;;
35304;SDS011;26433;48.034;-1.764;2023-08-01T07:01:53;1.90;;;1.02;;
35304;SDS011;26433;48.034;-1.764;2023-08-01T07:06:58;6.93;;;1.40;;
35304;SDS011;26433;48.034;-1.764;2023-08-01T07:12:03;8.40;;;2.78;;
35304;SDS011;26433;48.034;-1.764;2023-08-01T07:17:08;2.67;;;1.48;;
35304;SDS011;26433;48.034;-1.764;2023-08-01T07:22:12;5.18;;;1.77;;
35304;SDS011;26433;48.034;-1.764;2023-08-01T07:27:17;3.55;;;1.12;;
35304;SDS011;26433;48.034;-1.764;2023-08-01T07:32:21;2.55;;;1.40;;
35304;SDS011;26433;48.034;-1.764;2023-08-01T07:37:27;4.05;;;1.62;;
35304;SDS011;26433;48.034;-1.764;2023-08-01T07:42:32;2.00;;;1.27;;
35304;SDS011;26433;48.034;-1.764;2023-08-01T07:47:36;5.12;;;1.37;;
35304;SDS011;26433;48.034;-1.764;2023-08-01T07:52:40;3.37;;;2.08;;
35304;SDS011;26433;48.034;-1.764;2023-08-01T07:57:45;5.13;;;1.67;;
35304;SDS011;26433;48.034;-1.764;2023-08-01T08:02:49;3.30;;;1.35;;
35304;SDS011;26433;48.034;-1.764;2023-08-01T08:07:52;2.03;;;1.07;;
35304;SDS011;26433;48.034;-1.764;2023-08-01T08:12:58;7.37;;;1.00;;
35304;SDS011;26433;48.034;-1.764;2023-08-01T08:18:02;4.15;;;1.40;;
35304;SDS011;26433;48.034;-1.764;2023-08-01T08:23:07;2.72;;;1.60;;
35304;SDS011;26433;48.034;-1.764;2023-08-01T08:28:12;4.97;;;1.10;;
35304;SDS011;26433;48.034;-1.764;2023-08-01T08:33:19;1.27;;;0.98;;
35304;SDS011;26433;48.034;-1.764;2023-08-01T08:38:23;1.70;;;1.30;;
35304;SDS011;26433;48.034;-1.764;2023-08-01T08:43:29;1.85;;;1.50;;
35304;SDS011;26433;48.034;-1.764;2023-08-01T08:48:35;4.75;;;1.58;;
35304;SDS011;26433;48.034;-1.764;2023-08-01T08:53:42;4.12;;;1.60;;
35304;SDS011;26433;48.034;-1.764;2023-08-01T08:58:49;3.37;;;1.65;;
35304;SDS011;26433;48.034;-1.764;2023-08-01T09:03:54;4.60;;;1.30;;
35304;SDS011;26433;48.034;-1.764;2023-08-01T09:09:01;5.72;;;1.55;;
35304;SDS011;26433;48.034;-1.764;2023-08-01T09:14:08;5.32;;;1.20;;
35304;SDS011;26433;48.034;-1.764;2023-08-01T09:19:15;3.15;;;1.00;;
35304;SDS011;26433;48.034;-1.764;2023-08-01T09:24:20;2.33;;;1.12;;
35304;SDS011;26433;48.034;-1.764;2023-08-01T09:34:29;2.17;;;1.20;;
35304;SDS011;26433;48.034;-1.764;2023-08-01T09:39:33;5.07;;;1.40;;
35304;SDS011;26433;48.034;-1.764;2023-08-01T09:44:38;2.78;;;1.20;;
35304;SDS011;26433;48.034;-1.764;2023-08-01T09:49:48;2.33;;;0.95;;
35304;SDS011;26433;48.034;-1.764;2023-08-01T09:54:52;5.28;;;1.42;;
35304;SDS011;26433;48.034;-1.764;2023-08-01T09:59:57;4.87;;;1.37;;
35304;SDS011;26433;48.034;-1.764;2023-08-01T10:05:12;1.85;;;1.12;;
35304;SDS011;26433;48.034;-1.764;2023-08-01T10:10:17;2.25;;;0.93;;
35304;SDS011;26433;48.034;-1.764;2023-08-01T10:15:23;2.50;;;1.10;;
35304;SDS011;26433;48.034;-1.764;2023-08-01T10:20:27;2.17;;;1.12;;
35304;SDS011;26433;48.034;-1.764;2023-08-01T10:25:31;1.77;;;0.95;;
35304;SDS011;26433;48.034;-1.764;2023-08-01T10:30:37;3.05;;;1.62;;
35304;SDS011;26433;48.034;-1.764;2023-08-01T10:35:41;2.08;;;0.62;;
35304;SDS011;26433;48.034;-1.764;2023-08-01T10:40:45;2.47;;;0.88;;
35304;SDS011;26433;48.034;-1.764;2023-08-01T10:45:59;2.12;;;0.98;;
35304;SDS011;26433;48.034;-1.764;2023-08-01T10:51:04;8.05;;;1.40;;
35304;SDS011;26433;48.034;-1.764;2023-08-01T10:56:07;2.90;;;1.40;;
35304;SDS011;26433;48.034;-1.764;2023-08-01T11:01:19;7.00;;;1.75;;
35304;SDS011;26433;48.034;-1.764;2023-08-01T11:06:22;2.40;;;1.33;;
35304;SDS011;26433;48.034;-1.764;2023-08-01T11:11:26;1.93;;;1.23;;
35304;SDS011;26433;48.034;-1.764;2023-08-01T11:16:31;1.95;;;0.80;;
35304;SDS011;26433;48.034;-1.764;2023-08-01T11:21:35;3.80;;;1.45;;
35304;SDS011;26433;48.034;-1.764;2023-08-01T11:26:40;2.77;;;1.00;;
35304;SDS011;26433;48.034;-1.764;2023-08-01T11:31:53;2.72;;;0.95;;
35304;SDS011;26433;48.034;-1.764;2023-08-01T11:36:57;2.35;;;0.77;;
35304;SDS011;26433;48.034;-1.764;2023-08-01T11:42:03;4.25;;;1.40;;
35304;SDS011;26433;48.034;-1.764;2023-08-01T11:47:11;4.10;;;1.73;;
35304;SDS011;26433;48.034;-1.764;2023-08-01T11:52:23;2.17;;;0.80;;
35304;SDS011;26433;48.034;-1.764;2023-08-01T11:57:27;2.67;;;0.90;;
35304;SDS011;26433;48.034;-1.764;2023-08-01T12:02:33;1.50;;;0.70;;
35304;SDS011;26433;48.034;-1.764;2023-08-01T12:07:36;0.95;;;0.60;;
35304;SDS011;26433;48.034;-1.764;2023-08-01T12:12:43;6.05;;;1.27;;
35304;SDS011;26433;48.034;-1.764;2023-08-01T12:17:49;4.35;;;1.02;;
35304;SDS011;26433;48.034;-1.764;2023-08-01T12:22:52;1.35;;;0.75;;
35304;SDS011;26433;48.034;-1.764;2023-08-01T12:27:56;1.12;;;0.80;;
35304;SDS011;26433;48.034;-1.764;2023-08-01T12:33:02;6.00;;;0.93;;
35304;SDS011;26433;48.034;-1.764;2023-08-01T12:38:05;2.10;;;0.98;;
35304;SDS011;26433;48.034;-1.764;2023-08-01T12:43:10;1.10;;;0.88;;
35304;SDS011;26433;48.034;-1.764;2023-08-01T12:48:16;2.53;;;1.08;;
35304;SDS011;26433;48.034;-1.764;2023-08-01T12:53:19;4.05;;;0.75;;
35304;SDS011;26433;48.034;-1.764;2023-08-01T12:58:24;1.80;;;1.00;;
35304;SDS011;26433;48.034;-1.764;2023-08-01T13:03:29;2.58;;;0.80;;
35304;SDS011;26433;48.034;-1.764;2023-08-01T13:08:33;1.37;;;0.93;;
35304;SDS011;26433;48.034;-1.764;2023-08-01T13:13:37;6.53;;;1.73;;
35304;SDS011;26433;48.034;-1.764;2023-08-01T13:18:42;2.33;;;0.90;;
35304;SDS011;26433;48.034;-1.764;2023-08-01T13:23:47;1.98;;;1.15;;
35304;SDS011;26433;48.034;-1.764;2023-08-01T13:28:51;2.55;;;0.80;;
35304;SDS011;26433;48.034;-1.764;2023-08-01T13:33:56;4.27;;;1.83;;
35304;SDS011;26433;48.034;-1.764;2023-08-01T13:39:00;4.00;;;0.93;;
35304;SDS011;26433;48.034;-1.764;2023-08-01T13:44:04;4.00;;;0.93;;
35304;SDS011;26433;48.034;-1.764;2023-08-01T13:49:09;2.10;;;1.50;;
35304;SDS011;26433;48.034;-1.764;2023-08-01T13:54:14;1.92;;;1.40;;
35304;SDS011;26433;48.034;-1.764;2023-08-01T13:59:18;3.00;;;1.00;;
35304;SDS011;26433;48.034;-1.764;2023-08-01T14:04:24;4.93;;;2.53;;
35304;SDS011;26433;48.034;-1.764;2023-08-01T14:09:27;4.72;;;1.10;;
35304;SDS011;26433;48.034;-1.764;2023-08-01T14:14:34;2.50;;;1.48;;
35304;SDS011;26433;48.034;-1.764;2023-08-01T14:19:39;2.08;;;1.08;;
35304;SDS011;26433;48.034;-1.764;2023-08-01T14:24:43;5.10;;;1.27;;
35304;SDS011;26433;48.034;-1.764;2023-08-01T14:29:47;1.50;;;0.90;;
35304;SDS011;26433;48.034;-1.764;2023-08-01T14:34:52;4.10;;;1.50;;
35304;SDS011;26433;48.034;-1.764;2023-08-01T14:39:55;4.28;;;1.30;;
35304;SDS011;26433;48.034;-1.764;2023-08-01T14:44:59;3.73;;;1.40;;
35304;SDS011;26433;48.034;-1.764;2023-08-01T14:50:04;2.42;;;1.33;;
35304;SDS011;26433;48.034;-1.764;2023-08-01T14:55:09;3.35;;;1.58;;
35304;SDS011;26433;48.034;-1.764;2023-08-01T15:00:13;4.73;;;1.47;;
35304;SDS011;26433;48.034;-1.764;2023-08-01T15:05:19;2.65;;;1.25;;
35304;SDS011;26433;48.034;-1.764;2023-08-01T15:10:22;2.92;;;1.87;;
35304;SDS011;26433;48.034;-1.764;2023-08-01T15:15:26;2.57;;;1.00;;
35304;SDS011;26433;48.034;-1.764;2023-08-01T15:20:31;3.90;;;1.00;;
35304;SDS011;26433;48.034;-1.764;2023-08-01T15:25:40;1.02;;;0.77;;
35304;SDS011;26433;48.034;-1.764;2023-08-01T15:30:43;6.47;;;0.90;;
35304;SDS011;26433;48.034;-1.764;2023-08-01T15:35:48;1.67;;;0.60;;
35304;SDS011;26433;48.034;-1.764;2023-08-01T15:40:52;1.80;;;0.75;;
35304;SDS011;26433;48.034;-1.764;2023-08-01T15:45:55;2.20;;;0.80;;
35304;SDS011;26433;48.034;-1.764;2023-08-01T15:51:01;7.45;;;1.30;;
35304;SDS011;26433;48.034;-1.764;2023-08-01T15:56:06;2.72;;;1.50;;
35304;SDS011;26433;48.034;-1.764;2023-08-01T16:01:12;3.10;;;0.98;;
35304;SDS011;26433;48.034;-1.764;2023-08-01T16:06:17;4.13;;;1.10;;
35304;SDS011;26433;48.034;-1.764;2023-08-01T16:11:21;1.42;;;0.80;;
35304;SDS011;26433;48.034;-1.764;2023-08-01T16:16:25;4.90;;;1.30;;
35304;SDS011;26433;48.034;-1.764;2023-08-01T16:21:30;1.85;;;1.08;;
35304;SDS011;26433;48.034;-1.764;2023-08-01T16:26:34;2.10;;;1.17;;
35304;SDS011;26433;48.034;-1.764;2023-08-01T16:31:37;3.20;;;1.20;;
35304;SDS011;26433;48.034;-1.764;2023-08-01T16:36:43;1.62;;;1.23;;
35304;SDS011;26433;48.034;-1.764;2023-08-01T16:41:47;5.65;;;1.50;;
35304;SDS011;26433;48.034;-1.764;2023-08-01T16:46:51;6.22;;;2.08;;
35304;SDS011;26433;48.034;-1.764;2023-08-01T16:51:57;2.12;;;1.23;;
35304;SDS011;26433;48.034;-1.764;2023-08-01T16:57:00;4.43;;;1.30;;
35304;SDS011;26433;48.034;-1.764;2023-08-01T17:02:05;2.53;;;1.15;;
35304;SDS011;26433;48.034;-1.764;2023-08-01T17:07:11;2.67;;;1.25;;
35304;SDS011;26433;48.034;-1.764;2023-08-01T17:12:15;2.10;;;1.35;;
35304;SDS011;26433;48.034;-1.764;2023-08-01T17:17:19;2.87;;;1.35;;
35304;SDS011;26433;48.034;-1.764;2023-08-01T17:22:24;2.30;;;1.23;;
35304;SDS011;26433;48.034;-1.764;2023-08-01T17:27:29;1.58;;;1.00;;
35304;SDS011;26433;48.034;-1.764;2023-08-01T17:32:33;1.75;;;0.98;;
35304;SDS011;26433;48.034;-1.764;2023-08-01T17:37:38;1.67;;;0.82;;
35304;SDS011;26433;48.034;-1.764;2023-08-01T17:42:42;4.75;;;0.98;;
35304;SDS011;26433;48.034;-1.764;2023-08-01T17:47:47;1.52;;;1.00;;
35304;SDS011;26433;48.034;-1.764;2023-08-01T17:52:52;2.28;;;1.20;;
35304;SDS011;26433;48.034;-1.764;2023-08-01T17:57:56;2.08;;;1.30;;
35304;SDS011;26433;48.034;-1.764;2023-08-01T18:03:01;2.25;;;0.85;;
35304;SDS011;26433;48.034;-1.764;2023-08-01T18:08:06;1.73;;;0.80;;
35304;SDS011;26433;48.034;-1.764;2023-08-01T18:13:10;1.65;;;0.73;;
35304;SDS011;26433;48.034;-1.764;2023-08-01T18:18:14;2.17;;;1.00;;
35304;SDS011;26433;48.034;-1.764;2023-08-01T18:23:21;4.90;;;0.90;;
35304;SDS011;26433;48.034;-1.764;2023-08-01T18:28:25;1.30;;;0.60;;
35304;SDS011;26433;48.034;-1.764;2023-08-01T18:33:29;2.70;;;0.98;;
35304;SDS011;26433;48.034;-1.764;2023-08-01T18:38:34;3.08;;;1.23;;
35304;SDS011;26433;48.034;-1.764;2023-08-01T18:43:38;1.25;;;0.93;;
35304;SDS011;26433;48.034;-1.764;2023-08-01T18:48:42;1.48;;;0.60;;
35304;SDS011;26433;48.034;-1.764;2023-08-01T18:53:50;1.02;;;0.50;;
35304;SDS011;26433;48.034;-1.764;2023-08-01T18:58:53;1.73;;;0.93;;
35304;SDS011;26433;48.034;-1.764;2023-08-01T19:03:58;0.95;;;0.60;;
35304;SDS011;26433;48.034;-1.764;2023-08-01T19:09:04;1.20;;;0.60;;
35304;SDS011;26433;48.034;-1.764;2023-08-01T19:14:21;0.45;;;0.40;;
35304;SDS011;26433;48.034;-1.764;2023-08-01T19:19:25;2.72;;;0.68;;
35304;SDS011;26433;48.034;-1.764;2023-08-01T19:24:31;1.60;;;0.85;;
35304;SDS011;26433;48.034;-1.764;2023-08-01T19:29:34;1.65;;;0.90;;
35304;SDS011;26433;48.034;-1.764;2023-08-01T19:34:38;3.08;;;1.10;;
35304;SDS011;26433;48.034;-1.764;2023-08-01T19:39:44;1.50;;;1.12;;
35304;SDS011;26433;48.034;-1.764;2023-08-01T19:44:47;3.45;;;1.42;;
35304;SDS011;26433;48.034;-1.764;2023-08-01T19:49:51;2.25;;;1.35;;
35304;SDS011;26433;48.034;-1.764;2023-08-01T19:54:57;2.47;;;1.52;;
35304;SDS011;26433;48.034;-1.764;2023-08-01T20:00:00;2.08;;;1.20;;
35304;SDS011;26433;48.034;-1.764;2023-08-01T20:05:12;2.62;;;1.65;;
35304;SDS011;26433;48.034;-1.764;2023-08-01T20:10:18;2.75;;;1.60;;
35304;SDS011;26433;48.034;-1.764;2023-08-01T20:15:22;3.45;;;1.80;;
35304;SDS011;26433;48.034;-1.764;2023-08-01T20:20:25;2.50;;;1.12;;
35304;SDS011;26433;48.034;-1.764;2023-08-01T20:25:31;1.55;;;1.15;;
35304;SDS011;26433;48.034;-1.764;2023-08-01T20:30:35;2.15;;;1.52;;
35304;SDS011;26433;48.034;-1.764;2023-08-01T20:35:39;4.40;;;1.77;;
35304;SDS011;26433;48.034;-1.764;2023-08-01T20:40:44;1.97;;;1.33;;
35304;SDS011;26433;48.034;-1.764;2023-08-01T20:45:47;1.60;;;0.80;;
35304;SDS011;26433;48.034;-1.764;2023-08-01T20:50:51;1.98;;;0.82;;
35304;SDS011;26433;48.034;-1.764;2023-08-01T20:55:56;2.80;;;1.40;;
35304;SDS011;26433;48.034;-1.764;2023-08-01T21:01:01;0.98;;;0.80;;
35304;SDS011;26433;48.034;-1.764;2023-08-01T21:11:10;2.62;;;0.55;;
35304;SDS011;26433;48.034;-1.764;2023-08-01T21:16:15;0.70;;;0.50;;
35304;SDS011;26433;48.034;-1.764;2023-08-01T21:21:19;0.60;;;0.40;;
35304;SDS011;26433;48.034;-1.764;2023-08-01T21:26:24;1.70;;;0.40;;
35304;SDS011;26433;48.034;-1.764;2023-08-01T21:31:28;0.35;;;0.30;;
35304;SDS011;26433;48.034;-1.764;2023-08-01T21:36:32;0.40;;;0.20;;
35304;SDS011;26433;48.034;-1.764;2023-08-01T21:41:37;0.20;;;0.20;;
35304;SDS011;26433;48.034;-1.764;2023-08-01T21:46:41;0.30;;;0.20;;
35304;SDS011;26433;48.034;-1.764;2023-08-01T21:56:50;0.20;;;0.20;;
35304;SDS011;26433;48.034;-1.764;2023-08-01T22:01:54;0.93;;;0.20;;
35304;SDS011;26433;48.034;-1.764;2023-08-01T22:06:57;0.53;;;0.23;;
35304;SDS011;26433;48.034;-1.764;2023-08-01T22:12:03;0.70;;;0.63;;
35304;SDS011;26433;48.034;-1.764;2023-08-01T22:17:07;0.17;;;0.17;;
35304;SDS011;26433;48.034;-1.764;2023-08-01T22:22:11;1.83;;;0.20;;
35304;SDS011;26433;48.034;-1.764;2023-08-01T22:27:16;0.50;;;0.32;;
35304;SDS011;26433;48.034;-1.764;2023-08-01T22:32:20;0.40;;;0.20;;
35304;SDS011;26433;48.034;-1.764;2023-08-01T22:37:23;2.50;;;0.40;;
35304;SDS011;26433;48.034;-1.764;2023-08-01T22:42:29;8.18;;;0.68;;
35304;SDS011;26433;48.034;-1.764;2023-08-01T22:47:32;0.50;;;0.30;;
35304;SDS011;26433;48.034;-1.764;2023-08-01T22:57:41;0.93;;;0.32;;
35304;SDS011;26433;48.034;-1.764;2023-08-01T23:02:45;0.43;;;0.35;;
35304;SDS011;26433;48.034;-1.764;2023-08-01T23:07:50;4.07;;;0.70;;
35304;SDS011;26433;48.034;-1.764;2023-08-01T23:12:56;3.87;;;0.62;;
35304;SDS011;26433;48.034;-1.764;2023-08-01T23:18:00;3.97;;;0.95;;
35304;SDS011;26433;48.034;-1.764;2023-08-01T23:23:03;2.58;;;0.80;;
35304;SDS011;26433;48.034;-1.764;2023-08-01T23:28:09;6.93;;;0.93;;
35304;SDS011;26433;48.034;-1.764;2023-08-01T23:33:12;2.65;;;0.68;;
35304;SDS011;26433;48.034;-1.764;2023-08-01T23:38:16;2.67;;;1.37;;
35304;SDS011;26433;48.034;-1.764;2023-08-01T23:43:23;5.90;;;1.77;;
35304;SDS011;26433;48.034;-1.764;2023-08-01T23:48:27;4.57;;;1.20;;
35304;SDS011;26433;48.034;-1.764;2023-08-01T23:53:31;3.28;;;1.23;;
35304;SDS011;26433;48.034;-1.764;2023-08-01T23:58:36;2.30;;;0.80;;
